sensor_id;sensor_type;location;lat;lon;timestamp;temperature;humidity
56478;DHT22;42382;53.210;5.772;2023-08-06T00:00:15;14.60;91.40
56478;DHT22;42382;53.210;5.772;2023-08-06T00:02:40;14.60;91.50
56478;DHT22;42382;53.210;5.772;2023-08-06T00:05:06;14.60;91.40
56478;DHT22;42382;53.210;5.772;2023-08-06T00:07:32;14.60;91.40
56478;DHT22;42382;53.210;5.772;2023-08-06T00:09:58;14.60;91.40
56478;DHT22;42382;53.210;5.772;2023-08-06T00:12:23;14.60;91.40
56478;DHT22;42382;53.210;5.772;2023-08-06T00:14:52;14.60;91.40
56478;DHT22;42382;53.210;5.772;2023-08-06T00:17:18;14.60;91.40
56478;DHT22;42382;53.210;5.772;2023-08-06T00:19:44;14.60;91.30
56478;DHT22;42382;53.210;5.772;2023-08-06T00:22:10;14.50;91.40
56478;DHT22;42382;53.210;5.772;2023-08-06T00:24:36;14.60;91.40
56478;DHT22;42382;53.210;5.772;2023-08-06T00:27:02;14.60;91.30
56478;DHT22;42382;53.210;5.772;2023-08-06T00:29:28;14.50;91.40
56478;DHT22;42382;53.210;5.772;2023-08-06T00:31:53;14.60;91.40
56478;DHT22;42382;53.210;5.772;2023-08-06T00:34:19;14.60;91.40
56478;DHT22;42382;53.210;5.772;2023-08-06T00:36:45;14.60;91.40
56478;DHT22;42382;53.210;5.772;2023-08-06T00:39:11;14.50;91.40
56478;DHT22;42382;53.210;5.772;2023-08-06T00:41:37;14.50;91.40
56478;DHT22;42382;53.210;5.772;2023-08-06T00:44:03;14.50;91.40
56478;DHT22;42382;53.210;5.772;2023-08-06T00:46:28;14.50;91.40
56478;DHT22;42382;53.210;5.772;2023-08-06T00:48:55;14.50;91.40
56478;DHT22;42382;53.210;5.772;2023-08-06T00:51:21;14.50;91.40
56478;DHT22;42382;53.210;5.772;2023-08-06T00:53:49;14.50;91.50
56478;DHT22;42382;53.210;5.772;2023-08-06T00:56:15;14.60;91.50
56478;DHT22;42382;53.210;5.772;2023-08-06T00:58:41;14.50;91.50
56478;DHT22;42382;53.210;5.772;2023-08-06T01:01:07;14.50;91.50
56478;DHT22;42382;53.210;5.772;2023-08-06T01:03:33;14.60;91.50
56478;DHT22;42382;53.210;5.772;2023-08-06T01:05:59;14.50;91.60
56478;DHT22;42382;53.210;5.772;2023-08-06T01:11:44;14.60;91.70
56478;DHT22;42382;53.210;5.772;2023-08-06T01:14:18;14.60;91.70
56478;DHT22;42382;53.210;5.772;2023-08-06T01:16:47;14.60;91.60
56478;DHT22;42382;53.210;5.772;2023-08-06T01:19:21;14.60;91.60
56478;DHT22;42382;53.210;5.772;2023-08-06T01:21:46;14.60;91.70
56478;DHT22;42382;53.210;5.772;2023-08-06T01:24:12;14.60;91.60
56478;DHT22;42382;53.210;5.772;2023-08-06T01:26:45;14.60;91.70
56478;DHT22;42382;53.210;5.772;2023-08-06T01:29:23;14.60;91.70
56478;DHT22;42382;53.210;5.772;2023-08-06T01:31:51;14.60;91.70
56478;DHT22;42382;53.210;5.772;2023-08-06T01:34:22;14.60;91.70
56478;DHT22;42382;53.210;5.772;2023-08-06T01:36:49;14.70;91.80
56478;DHT22;42382;53.210;5.772;2023-08-06T01:39:15;14.70;91.70
56478;DHT22;42382;53.210;5.772;2023-08-06T01:41:41;14.60;91.70
56478;DHT22;42382;53.210;5.772;2023-08-06T01:44:06;14.70;91.70
56478;DHT22;42382;53.210;5.772;2023-08-06T01:46:32;14.60;91.70
56478;DHT22;42382;53.210;5.772;2023-08-06T01:48:58;14.60;91.80
56478;DHT22;42382;53.210;5.772;2023-08-06T01:51:23;14.60;91.80
56478;DHT22;42382;53.210;5.772;2023-08-06T01:53:49;14.60;91.70
56478;DHT22;42382;53.210;5.772;2023-08-06T01:56:14;14.60;91.80
56478;DHT22;42382;53.210;5.772;2023-08-06T01:58:40;14.60;91.70
56478;DHT22;42382;53.210;5.772;2023-08-06T02:01:06;14.60;91.80
56478;DHT22;42382;53.210;5.772;2023-08-06T02:03:31;14.60;91.80
56478;DHT22;42382;53.210;5.772;2023-08-06T02:05:57;14.60;91.70
56478;DHT22;42382;53.210;5.772;2023-08-06T02:08:22;14.60;91.70
56478;DHT22;42382;53.210;5.772;2023-08-06T02:10:48;14.60;91.70
56478;DHT22;42382;53.210;5.772;2023-08-06T02:13:14;14.60;91.70
56478;DHT22;42382;53.210;5.772;2023-08-06T02:15:46;14.50;91.80
56478;DHT22;42382;53.210;5.772;2023-08-06T02:18:15;14.50;91.80
56478;DHT22;42382;53.210;5.772;2023-08-06T02:20:41;14.50;91.70
56478;DHT22;42382;53.210;5.772;2023-08-06T02:23:07;14.60;91.80
56478;DHT22;42382;53.210;5.772;2023-08-06T02:25:33;14.60;91.80
56478;DHT22;42382;53.210;5.772;2023-08-06T02:27:58;14.60;91.80
56478;DHT22;42382;53.210;5.772;2023-08-06T02:30:24;14.50;91.80
56478;DHT22;42382;53.210;5.772;2023-08-06T02:32:50;14.50;91.70
56478;DHT22;42382;53.210;5.772;2023-08-06T02:35:15;14.50;91.80
56478;DHT22;42382;53.210;5.772;2023-08-06T02:37:41;14.50;91.80
56478;DHT22;42382;53.210;5.772;2023-08-06T02:40:07;14.50;91.80
56478;DHT22;42382;53.210;5.772;2023-08-06T02:42:33;14.50;91.80
56478;DHT22;42382;53.210;5.772;2023-08-06T02:44:59;14.50;91.80
56478;DHT22;42382;53.210;5.772;2023-08-06T02:47:24;14.50;91.80
56478;DHT22;42382;53.210;5.772;2023-08-06T02:49:50;14.50;91.80
56478;DHT22;42382;53.210;5.772;2023-08-06T02:52:15;14.50;91.80
56478;DHT22;42382;53.210;5.772;2023-08-06T02:54:41;14.50;91.80
56478;DHT22;42382;53.210;5.772;2023-08-06T02:57:07;14.50;91.80
56478;DHT22;42382;53.210;5.772;2023-08-06T02:59:33;14.50;91.90
56478;DHT22;42382;53.210;5.772;2023-08-06T03:01:59;14.50;91.90
56478;DHT22;42382;53.210;5.772;2023-08-06T03:04:25;14.50;91.90
56478;DHT22;42382;53.210;5.772;2023-08-06T03:06:51;14.50;91.90
56478;DHT22;42382;53.210;5.772;2023-08-06T03:09:17;14.50;92.00
56478;DHT22;42382;53.210;5.772;2023-08-06T03:11:43;14.50;92.00
56478;DHT22;42382;53.210;5.772;2023-08-06T03:14:08;14.50;92.00
56478;DHT22;42382;53.210;5.772;2023-08-06T03:16:34;14.50;91.90
56478;DHT22;42382;53.210;5.772;2023-08-06T03:18:59;14.50;92.00
56478;DHT22;42382;53.210;5.772;2023-08-06T03:21:25;14.50;92.00
56478;DHT22;42382;53.210;5.772;2023-08-06T03:23:51;14.60;92.00
56478;DHT22;42382;53.210;5.772;2023-08-06T03:26:17;14.60;92.00
56478;DHT22;42382;53.210;5.772;2023-08-06T03:28:43;14.50;92.00
56478;DHT22;42382;53.210;5.772;2023-08-06T03:31:09;14.50;92.00
56478;DHT22;42382;53.210;5.772;2023-08-06T03:33:34;14.50;92.00
56478;DHT22;42382;53.210;5.772;2023-08-06T03:36:00;14.50;92.00
56478;DHT22;42382;53.210;5.772;2023-08-06T03:38:26;14.50;92.00
56478;DHT22;42382;53.210;5.772;2023-08-06T03:40:53;14.50;92.00
56478;DHT22;42382;53.210;5.772;2023-08-06T03:43:18;14.50;92.00
56478;DHT22;42382;53.210;5.772;2023-08-06T03:45:44;14.50;92.00
56478;DHT22;42382;53.210;5.772;2023-08-06T03:48:10;14.50;92.00
56478;DHT22;42382;53.210;5.772;2023-08-06T03:50:35;14.50;92.10
56478;DHT22;42382;53.210;5.772;2023-08-06T03:53:01;14.50;92.00
56478;DHT22;42382;53.210;5.772;2023-08-06T03:55:27;14.50;92.00
56478;DHT22;42382;53.210;5.772;2023-08-06T03:57:53;14.50;92.10
56478;DHT22;42382;53.210;5.772;2023-08-06T04:00:18;14.50;92.00
56478;DHT22;42382;53.210;5.772;2023-08-06T04:02:44;14.50;92.10
56478;DHT22;42382;53.210;5.772;2023-08-06T04:05:10;14.50;92.10
56478;DHT22;42382;53.210;5.772;2023-08-06T04:07:36;14.50;92.10
56478;DHT22;42382;53.210;5.772;2023-08-06T04:10:04;14.50;92.10
56478;DHT22;42382;53.210;5.772;2023-08-06T04:12:30;14.60;92.20
56478;DHT22;42382;53.210;5.772;2023-08-06T04:14:58;14.50;92.10
56478;DHT22;42382;53.210;5.772;2023-08-06T04:17:24;14.50;92.10
56478;DHT22;42382;53.210;5.772;2023-08-06T04:19:54;14.60;92.10
56478;DHT22;42382;53.210;5.772;2023-08-06T04:22:20;14.50;92.10
56478;DHT22;42382;53.210;5.772;2023-08-06T04:24:47;14.50;92.20
56478;DHT22;42382;53.210;5.772;2023-08-06T04:27:13;14.50;92.10
56478;DHT22;42382;53.210;5.772;2023-08-06T04:29:39;14.60;92.20
56478;DHT22;42382;53.210;5.772;2023-08-06T04:32:07;14.60;92.10
56478;DHT22;42382;53.210;5.772;2023-08-06T04:34:33;14.60;92.20
56478;DHT22;42382;53.210;5.772;2023-08-06T04:36:59;14.60;92.20
56478;DHT22;42382;53.210;5.772;2023-08-06T04:39:25;14.60;92.20
56478;DHT22;42382;53.210;5.772;2023-08-06T04:41:50;14.60;92.20
56478;DHT22;42382;53.210;5.772;2023-08-06T04:44:16;14.60;92.20
56478;DHT22;42382;53.210;5.772;2023-08-06T04:46:42;14.70;92.20
56478;DHT22;42382;53.210;5.772;2023-08-06T04:49:07;14.70;92.20
56478;DHT22;42382;53.210;5.772;2023-08-06T04:51:33;14.60;92.20
56478;DHT22;42382;53.210;5.772;2023-08-06T04:53:58;14.60;92.10
56478;DHT22;42382;53.210;5.772;2023-08-06T04:56:24;14.70;92.20
56478;DHT22;42382;53.210;5.772;2023-08-06T04:58:50;14.70;92.10
56478;DHT22;42382;53.210;5.772;2023-08-06T05:01:16;14.70;92.20
56478;DHT22;42382;53.210;5.772;2023-08-06T05:03:41;14.70;92.20
56478;DHT22;42382;53.210;5.772;2023-08-06T05:06:07;14.70;92.10
56478;DHT22;42382;53.210;5.772;2023-08-06T05:08:33;14.70;92.20
56478;DHT22;42382;53.210;5.772;2023-08-06T05:10:59;14.70;92.10
56478;DHT22;42382;53.210;5.772;2023-08-06T05:13:24;14.70;92.10
56478;DHT22;42382;53.210;5.772;2023-08-06T05:15:51;14.80;92.20
56478;DHT22;42382;53.210;5.772;2023-08-06T05:18:18;14.80;92.20
56478;DHT22;42382;53.210;5.772;2023-08-06T05:20:44;14.80;92.20
56478;DHT22;42382;53.210;5.772;2023-08-06T05:23:10;14.80;92.20
56478;DHT22;42382;53.210;5.772;2023-08-06T05:25:35;14.80;92.20
56478;DHT22;42382;53.210;5.772;2023-08-06T05:28:02;14.80;92.10
56478;DHT22;42382;53.210;5.772;2023-08-06T05:30:28;14.90;92.20
56478;DHT22;42382;53.210;5.772;2023-08-06T05:32:53;14.90;92.10
56478;DHT22;42382;53.210;5.772;2023-08-06T05:35:19;14.90;92.20
56478;DHT22;42382;53.210;5.772;2023-08-06T05:37:46;14.90;92.20
56478;DHT22;42382;53.210;5.772;2023-08-06T05:40:11;15.00;92.20
56478;DHT22;42382;53.210;5.772;2023-08-06T05:42:37;15.00;92.20
56478;DHT22;42382;53.210;5.772;2023-08-06T05:45:02;15.10;92.20
56478;DHT22;42382;53.210;5.772;2023-08-06T05:47:28;15.20;92.20
56478;DHT22;42382;53.210;5.772;2023-08-06T05:49:54;15.20;92.20
56478;DHT22;42382;53.210;5.772;2023-08-06T05:52:21;15.20;92.20
56478;DHT22;42382;53.210;5.772;2023-08-06T05:54:46;15.30;92.20
56478;DHT22;42382;53.210;5.772;2023-08-06T05:57:12;15.30;92.20
56478;DHT22;42382;53.210;5.772;2023-08-06T05:59:37;15.40;92.10
56478;DHT22;42382;53.210;5.772;2023-08-06T06:02:03;15.40;92.10
56478;DHT22;42382;53.210;5.772;2023-08-06T06:04:29;15.40;92.00
56478;DHT22;42382;53.210;5.772;2023-08-06T06:06:55;15.50;92.00
56478;DHT22;42382;53.210;5.772;2023-08-06T06:09:20;15.50;91.90
56478;DHT22;42382;53.210;5.772;2023-08-06T06:11:46;15.50;91.90
56478;DHT22;42382;53.210;5.772;2023-08-06T06:14:13;15.50;91.80
56478;DHT22;42382;53.210;5.772;2023-08-06T06:16:38;15.60;91.90
56478;DHT22;42382;53.210;5.772;2023-08-06T06:19:04;15.60;91.80
56478;DHT22;42382;53.210;5.772;2023-08-06T06:21:30;15.70;91.80
56478;DHT22;42382;53.210;5.772;2023-08-06T06:23:55;15.80;91.80
56478;DHT22;42382;53.210;5.772;2023-08-06T06:26:22;15.80;91.80
56478;DHT22;42382;53.210;5.772;2023-08-06T06:28:47;15.80;91.70
56478;DHT22;42382;53.210;5.772;2023-08-06T06:31:13;15.90;91.60
56478;DHT22;42382;53.210;5.772;2023-08-06T06:33:38;15.90;91.60
56478;DHT22;42382;53.210;5.772;2023-08-06T06:36:04;16.00;91.50
56478;DHT22;42382;53.210;5.772;2023-08-06T06:38:30;16.10;91.60
56478;DHT22;42382;53.210;5.772;2023-08-06T06:40:56;16.20;91.50
56478;DHT22;42382;53.210;5.772;2023-08-06T06:43:22;16.30;91.40
56478;DHT22;42382;53.210;5.772;2023-08-06T06:45:56;16.30;91.40
56478;DHT22;42382;53.210;5.772;2023-08-06T06:48:22;16.40;91.30
56478;DHT22;42382;53.210;5.772;2023-08-06T06:50:48;16.50;91.30
56478;DHT22;42382;53.210;5.772;2023-08-06T06:53:14;16.60;91.10
56478;DHT22;42382;53.210;5.772;2023-08-06T06:55:40;16.60;90.90
56478;DHT22;42382;53.210;5.772;2023-08-06T06:58:05;16.70;90.80
56478;DHT22;42382;53.210;5.772;2023-08-06T07:00:31;16.70;90.70
56478;DHT22;42382;53.210;5.772;2023-08-06T07:02:56;16.80;90.70
56478;DHT22;42382;53.210;5.772;2023-08-06T07:05:22;16.90;90.60
56478;DHT22;42382;53.210;5.772;2023-08-06T07:07:48;17.10;90.50
56478;DHT22;42382;53.210;5.772;2023-08-06T07:10:13;17.10;90.30
56478;DHT22;42382;53.210;5.772;2023-08-06T07:12:39;17.20;90.20
56478;DHT22;42382;53.210;5.772;2023-08-06T07:15:06;17.30;90.00
56478;DHT22;42382;53.210;5.772;2023-08-06T07:17:32;17.40;89.90
56478;DHT22;42382;53.210;5.772;2023-08-06T07:19:57;17.50;89.80
56478;DHT22;42382;53.210;5.772;2023-08-06T07:22:23;17.70;89.70
56478;DHT22;42382;53.210;5.772;2023-08-06T07:24:50;17.80;89.50
56478;DHT22;42382;53.210;5.772;2023-08-06T07:27:16;17.90;89.10
56478;DHT22;42382;53.210;5.772;2023-08-06T07:29:41;18.00;89.00
56478;DHT22;42382;53.210;5.772;2023-08-06T07:32:07;18.10;88.80
56478;DHT22;42382;53.210;5.772;2023-08-06T07:34:33;18.20;88.60
56478;DHT22;42382;53.210;5.772;2023-08-06T07:36:58;18.30;88.30
56478;DHT22;42382;53.210;5.772;2023-08-06T07:39:25;18.50;87.80
56478;DHT22;42382;53.210;5.772;2023-08-06T07:41:50;18.70;87.60
56478;DHT22;42382;53.210;5.772;2023-08-06T07:44:16;18.80;87.10
56478;DHT22;42382;53.210;5.772;2023-08-06T07:46:41;18.80;86.80
56478;DHT22;42382;53.210;5.772;2023-08-06T07:49:08;18.80;86.50
56478;DHT22;42382;53.210;5.772;2023-08-06T07:51:33;18.90;86.40
56478;DHT22;42382;53.210;5.772;2023-08-06T07:53:59;18.90;86.10
56478;DHT22;42382;53.210;5.772;2023-08-06T07:56:25;19.10;85.80
56478;DHT22;42382;53.210;5.772;2023-08-06T07:58:50;19.10;85.50
56478;DHT22;42382;53.210;5.772;2023-08-06T08:01:16;19.10;85.30
56478;DHT22;42382;53.210;5.772;2023-08-06T08:03:41;19.10;85.10
56478;DHT22;42382;53.210;5.772;2023-08-06T08:06:07;19.20;84.90
56478;DHT22;42382;53.210;5.772;2023-08-06T08:08:33;19.20;84.80
56478;DHT22;42382;53.210;5.772;2023-08-06T08:10:58;19.10;84.70
56478;DHT22;42382;53.210;5.772;2023-08-06T08:13:26;19.10;84.70
56478;DHT22;42382;53.210;5.772;2023-08-06T08:15:57;19.10;84.40
56478;DHT22;42382;53.210;5.772;2023-08-06T08:18:23;19.20;84.20
56478;DHT22;42382;53.210;5.772;2023-08-06T08:20:50;19.20;84.40
56478;DHT22;42382;53.210;5.772;2023-08-06T08:23:16;19.30;84.40
56478;DHT22;42382;53.210;5.772;2023-08-06T08:25:41;19.40;84.10
56478;DHT22;42382;53.210;5.772;2023-08-06T08:28:07;19.40;84.10
56478;DHT22;42382;53.210;5.772;2023-08-06T08:30:33;19.40;83.90
56478;DHT22;42382;53.210;5.772;2023-08-06T08:32:58;19.60;83.80
56478;DHT22;42382;53.210;5.772;2023-08-06T08:35:24;19.70;83.50
56478;DHT22;42382;53.210;5.772;2023-08-06T08:37:49;19.80;83.20
56478;DHT22;42382;53.210;5.772;2023-08-06T08:40:16;20.00;83.10
56478;DHT22;42382;53.210;5.772;2023-08-06T08:42:42;20.10;82.10
56478;DHT22;42382;53.210;5.772;2023-08-06T08:45:14;20.10;81.70
56478;DHT22;42382;53.210;5.772;2023-08-06T08:47:41;20.20;81.30
56478;DHT22;42382;53.210;5.772;2023-08-06T08:50:11;20.40;80.20
56478;DHT22;42382;53.210;5.772;2023-08-06T08:52:39;20.60;79.70
56478;DHT22;42382;53.210;5.772;2023-08-06T08:55:07;20.90;79.70
56478;DHT22;42382;53.210;5.772;2023-08-06T08:57:32;21.10;79.00
56478;DHT22;42382;53.210;5.772;2023-08-06T08:59:58;21.30;78.70
56478;DHT22;42382;53.210;5.772;2023-08-06T09:02:26;21.40;78.20
56478;DHT22;42382;53.210;5.772;2023-08-06T09:04:52;21.50;77.70
56478;DHT22;42382;53.210;5.772;2023-08-06T09:07:20;21.60;77.10
56478;DHT22;42382;53.210;5.772;2023-08-06T09:09:48;21.60;77.10
56478;DHT22;42382;53.210;5.772;2023-08-06T09:12:15;21.60;76.90
56478;DHT22;42382;53.210;5.772;2023-08-06T09:14:42;21.60;76.60
56478;DHT22;42382;53.210;5.772;2023-08-06T09:17:08;21.70;76.40
56478;DHT22;42382;53.210;5.772;2023-08-06T09:19:36;21.70;76.30
56478;DHT22;42382;53.210;5.772;2023-08-06T09:22:02;21.60;76.20
56478;DHT22;42382;53.210;5.772;2023-08-06T09:24:28;21.50;74.90
56478;DHT22;42382;53.210;5.772;2023-08-06T09:26:54;21.40;74.90
56478;DHT22;42382;53.210;5.772;2023-08-06T09:29:21;21.30;75.10
56478;DHT22;42382;53.210;5.772;2023-08-06T09:31:49;21.40;75.20
56478;DHT22;42382;53.210;5.772;2023-08-06T09:34:17;21.50;75.20
56478;DHT22;42382;53.210;5.772;2023-08-06T09:36:46;21.40;75.00
56478;DHT22;42382;53.210;5.772;2023-08-06T09:39:17;21.50;75.00
56478;DHT22;42382;53.210;5.772;2023-08-06T09:41:43;21.60;74.30
56478;DHT22;42382;53.210;5.772;2023-08-06T09:44:19;21.70;73.80
56478;DHT22;42382;53.210;5.772;2023-08-06T09:46:53;21.80;71.70
56478;DHT22;42382;53.210;5.772;2023-08-06T09:49:20;21.80;71.60
56478;DHT22;42382;53.210;5.772;2023-08-06T09:51:47;21.80;71.50
56478;DHT22;42382;53.210;5.772;2023-08-06T09:54:16;21.90;71.30
56478;DHT22;42382;53.210;5.772;2023-08-06T09:56:42;22.00;70.90
56478;DHT22;42382;53.210;5.772;2023-08-06T09:59:11;22.10;71.20
56478;DHT22;42382;53.210;5.772;2023-08-06T10:01:37;22.10;71.20
56478;DHT22;42382;53.210;5.772;2023-08-06T10:04:04;22.20;70.60
56478;DHT22;42382;53.210;5.772;2023-08-06T10:06:34;22.30;71.20
56478;DHT22;42382;53.210;5.772;2023-08-06T10:09:01;22.40;71.40
56478;DHT22;42382;53.210;5.772;2023-08-06T10:11:28;22.90;70.90
56478;DHT22;42382;53.210;5.772;2023-08-06T10:14:11;23.10;69.60
56478;DHT22;42382;53.210;5.772;2023-08-06T10:16:40;23.50;67.10
56478;DHT22;42382;53.210;5.772;2023-08-06T10:19:08;23.70;68.30
56478;DHT22;42382;53.210;5.772;2023-08-06T10:21:35;23.90;67.40
56478;DHT22;42382;53.210;5.772;2023-08-06T10:24:00;23.90;65.90
56478;DHT22;42382;53.210;5.772;2023-08-06T10:26:28;23.60;65.20
56478;DHT22;42382;53.210;5.772;2023-08-06T10:28:54;23.20;66.40
56478;DHT22;42382;53.210;5.772;2023-08-06T10:31:31;23.10;67.20
56478;DHT22;42382;53.210;5.772;2023-08-06T10:34:05;22.90;66.50
56478;DHT22;42382;53.210;5.772;2023-08-06T10:36:31;22.80;66.60
56478;DHT22;42382;53.210;5.772;2023-08-06T10:38:58;22.80;66.10
56478;DHT22;42382;53.210;5.772;2023-08-06T10:41:28;22.70;66.10
56478;DHT22;42382;53.210;5.772;2023-08-06T10:44:12;22.50;65.80
56478;DHT22;42382;53.210;5.772;2023-08-06T10:46:39;22.30;65.80
56478;DHT22;42382;53.210;5.772;2023-08-06T10:49:05;22.10;67.60
56478;DHT22;42382;53.210;5.772;2023-08-06T10:51:32;22.20;68.20
56478;DHT22;42382;53.210;5.772;2023-08-06T10:53:58;22.30;68.30
56478;DHT22;42382;53.210;5.772;2023-08-06T10:56:25;22.30;68.20
56478;DHT22;42382;53.210;5.772;2023-08-06T10:58:54;22.00;68.50
56478;DHT22;42382;53.210;5.772;2023-08-06T11:01:22;21.90;68.70
56478;DHT22;42382;53.210;5.772;2023-08-06T11:03:48;21.70;69.40
56478;DHT22;42382;53.210;5.772;2023-08-06T11:06:20;21.60;69.90
56478;DHT22;42382;53.210;5.772;2023-08-06T11:08:54;21.40;70.10
56478;DHT22;42382;53.210;5.772;2023-08-06T11:11:23;21.40;69.90
56478;DHT22;42382;53.210;5.772;2023-08-06T11:13:49;21.20;70.40
56478;DHT22;42382;53.210;5.772;2023-08-06T11:16:18;21.10;70.80
56478;DHT22;42382;53.210;5.772;2023-08-06T11:18:44;21.00;71.80
56478;DHT22;42382;53.210;5.772;2023-08-06T11:21:10;21.10;71.40
56478;DHT22;42382;53.210;5.772;2023-08-06T11:23:37;21.00;71.80
56478;DHT22;42382;53.210;5.772;2023-08-06T11:26:04;21.10;72.20
56478;DHT22;42382;53.210;5.772;2023-08-06T11:28:30;21.10;71.60
56478;DHT22;42382;53.210;5.772;2023-08-06T11:30:55;21.10;71.90
56478;DHT22;42382;53.210;5.772;2023-08-06T11:33:26;21.10;71.60
56478;DHT22;42382;53.210;5.772;2023-08-06T11:35:52;21.10;71.70
56478;DHT22;42382;53.210;5.772;2023-08-06T11:38:19;21.10;71.40
56478;DHT22;42382;53.210;5.772;2023-08-06T11:40:45;21.00;71.60
56478;DHT22;42382;53.210;5.772;2023-08-06T11:43:12;20.90;71.20
56478;DHT22;42382;53.210;5.772;2023-08-06T11:45:40;20.90;72.10
56478;DHT22;42382;53.210;5.772;2023-08-06T11:48:07;20.80;72.10
56478;DHT22;42382;53.210;5.772;2023-08-06T11:50:37;20.80;72.10
56478;DHT22;42382;53.210;5.772;2023-08-06T11:53:06;20.80;72.30
56478;DHT22;42382;53.210;5.772;2023-08-06T11:55:32;20.80;73.10
56478;DHT22;42382;53.210;5.772;2023-08-06T11:57:58;20.80;73.10
56478;DHT22;42382;53.210;5.772;2023-08-06T12:00:25;20.80;72.80
56478;DHT22;42382;53.210;5.772;2023-08-06T12:02:51;20.90;73.10
56478;DHT22;42382;53.210;5.772;2023-08-06T12:05:19;21.00;72.80
56478;DHT22;42382;53.210;5.772;2023-08-06T12:07:56;21.10;72.30
56478;DHT22;42382;53.210;5.772;2023-08-06T12:10:26;21.30;71.60
56478;DHT22;42382;53.210;5.772;2023-08-06T12:12:53;21.30;71.50
56478;DHT22;42382;53.210;5.772;2023-08-06T12:15:21;21.40;70.80
56478;DHT22;42382;53.210;5.772;2023-08-06T12:17:47;21.40;71.00
56478;DHT22;42382;53.210;5.772;2023-08-06T12:20:13;21.40;70.70
56478;DHT22;42382;53.210;5.772;2023-08-06T12:22:38;21.50;70.20
56478;DHT22;42382;53.210;5.772;2023-08-06T12:25:12;21.40;70.10
56478;DHT22;42382;53.210;5.772;2023-08-06T12:27:39;21.40;70.20
56478;DHT22;42382;53.210;5.772;2023-08-06T12:30:06;21.40;69.90
56478;DHT22;42382;53.210;5.772;2023-08-06T12:32:32;21.40;70.30
56478;DHT22;42382;53.210;5.772;2023-08-06T12:34:58;21.40;70.40
56478;DHT22;42382;53.210;5.772;2023-08-06T12:37:25;21.40;70.40
56478;DHT22;42382;53.210;5.772;2023-08-06T12:39:50;21.50;70.20
56478;DHT22;42382;53.210;5.772;2023-08-06T12:42:16;21.50;70.10
56478;DHT22;42382;53.210;5.772;2023-08-06T12:44:42;21.40;69.50
56478;DHT22;42382;53.210;5.772;2023-08-06T12:47:08;21.30;69.30
56478;DHT22;42382;53.210;5.772;2023-08-06T12:49:33;21.30;70.10
56478;DHT22;42382;53.210;5.772;2023-08-06T12:51:59;21.30;70.00
56478;DHT22;42382;53.210;5.772;2023-08-06T12:54:25;21.30;69.90
56478;DHT22;42382;53.210;5.772;2023-08-06T12:56:51;21.30;69.50
56478;DHT22;42382;53.210;5.772;2023-08-06T12:59:18;21.10;69.20
56478;DHT22;42382;53.210;5.772;2023-08-06T13:01:44;21.00;69.90
56478;DHT22;42382;53.210;5.772;2023-08-06T13:04:10;21.00;70.60
56478;DHT22;42382;53.210;5.772;2023-08-06T13:06:37;21.10;70.40
56478;DHT22;42382;53.210;5.772;2023-08-06T13:09:03;21.20;70.30
56478;DHT22;42382;53.210;5.772;2023-08-06T13:11:30;21.20;69.60
56478;DHT22;42382;53.210;5.772;2023-08-06T13:14:03;21.10;69.70
56478;DHT22;42382;53.210;5.772;2023-08-06T13:16:29;21.00;69.70
56478;DHT22;42382;53.210;5.772;2023-08-06T13:18:54;20.90;70.20
56478;DHT22;42382;53.210;5.772;2023-08-06T13:21:20;20.90;70.10
56478;DHT22;42382;53.210;5.772;2023-08-06T13:23:49;20.90;69.70
56478;DHT22;42382;53.210;5.772;2023-08-06T13:26:14;20.70;70.00
56478;DHT22;42382;53.210;5.772;2023-08-06T13:28:41;20.70;70.30
56478;DHT22;42382;53.210;5.772;2023-08-06T13:31:07;20.70;70.20
56478;DHT22;42382;53.210;5.772;2023-08-06T13:33:33;20.60;69.80
56478;DHT22;42382;53.210;5.772;2023-08-06T13:35:58;20.60;69.70
56478;DHT22;42382;53.210;5.772;2023-08-06T13:38:24;20.50;70.00
56478;DHT22;42382;53.210;5.772;2023-08-06T13:40:50;20.40;70.10
56478;DHT22;42382;53.210;5.772;2023-08-06T13:43:15;20.40;70.30
56478;DHT22;42382;53.210;5.772;2023-08-06T13:45:42;20.30;70.30
56478;DHT22;42382;53.210;5.772;2023-08-06T13:48:08;20.30;70.40
56478;DHT22;42382;53.210;5.772;2023-08-06T13:50:36;20.30;71.10
56478;DHT22;42382;53.210;5.772;2023-08-06T13:53:02;20.30;71.20
56478;DHT22;42382;53.210;5.772;2023-08-06T13:55:27;20.20;72.50
56478;DHT22;42382;53.210;5.772;2023-08-06T13:57:53;20.10;73.90
56478;DHT22;42382;53.210;5.772;2023-08-06T14:00:19;20.10;75.10
56478;DHT22;42382;53.210;5.772;2023-08-06T14:02:45;20.00;75.80
56478;DHT22;42382;53.210;5.772;2023-08-06T14:05:11;20.00;75.80
56478;DHT22;42382;53.210;5.772;2023-08-06T14:07:36;19.90;76.00
56478;DHT22;42382;53.210;5.772;2023-08-06T14:10:02;19.90;76.30
56478;DHT22;42382;53.210;5.772;2023-08-06T14:12:28;19.90;76.40
56478;DHT22;42382;53.210;5.772;2023-08-06T14:14:53;19.90;76.50
56478;DHT22;42382;53.210;5.772;2023-08-06T14:17:19;19.90;76.50
56478;DHT22;42382;53.210;5.772;2023-08-06T14:19:46;19.90;76.30
56478;DHT22;42382;53.210;5.772;2023-08-06T14:22:12;19.90;76.40
56478;DHT22;42382;53.210;5.772;2023-08-06T14:24:38;20.00;75.90
56478;DHT22;42382;53.210;5.772;2023-08-06T14:27:03;20.10;75.60
56478;DHT22;42382;53.210;5.772;2023-08-06T14:29:31;20.20;75.00
56478;DHT22;42382;53.210;5.772;2023-08-06T14:31:57;20.20;74.90
56478;DHT22;42382;53.210;5.772;2023-08-06T14:34:22;20.30;75.00
56478;DHT22;42382;53.210;5.772;2023-08-06T14:36:48;20.50;74.70
56478;DHT22;42382;53.210;5.772;2023-08-06T14:39:14;20.60;74.80
56478;DHT22;42382;53.210;5.772;2023-08-06T14:41:39;20.60;74.30
56478;DHT22;42382;53.210;5.772;2023-08-06T14:44:05;20.80;74.10
56478;DHT22;42382;53.210;5.772;2023-08-06T14:46:32;20.80;74.10
56478;DHT22;42382;53.210;5.772;2023-08-06T14:48:58;20.90;73.90
56478;DHT22;42382;53.210;5.772;2023-08-06T14:51:23;20.90;74.10
56478;DHT22;42382;53.210;5.772;2023-08-06T14:53:50;20.90;73.30
56478;DHT22;42382;53.210;5.772;2023-08-06T14:56:16;20.80;72.90
56478;DHT22;42382;53.210;5.772;2023-08-06T14:58:42;20.90;73.60
56478;DHT22;42382;53.210;5.772;2023-08-06T15:01:08;20.80;73.40
56478;DHT22;42382;53.210;5.772;2023-08-06T15:03:33;20.80;72.30
56478;DHT22;42382;53.210;5.772;2023-08-06T15:05:59;20.70;72.90
56478;DHT22;42382;53.210;5.772;2023-08-06T15:08:25;20.70;73.40
56478;DHT22;42382;53.210;5.772;2023-08-06T15:10:51;20.80;73.20
56478;DHT22;42382;53.210;5.772;2023-08-06T15:13:21;20.70;73.00
56478;DHT22;42382;53.210;5.772;2023-08-06T15:15:49;20.60;73.10
56478;DHT22;42382;53.210;5.772;2023-08-06T15:18:15;20.60;72.90
56478;DHT22;42382;53.210;5.772;2023-08-06T15:20:41;20.50;73.20
56478;DHT22;42382;53.210;5.772;2023-08-06T15:23:07;20.50;73.10
56478;DHT22;42382;53.210;5.772;2023-08-06T15:25:32;20.40;72.40
56478;DHT22;42382;53.210;5.772;2023-08-06T15:27:58;20.40;72.60